ZSJRH FAPE-FAPX
Flight info
| Callsign | ZSJRH |
|---|---|
| Flight time | 0h 14m |
| Altitude | 8000 |
| Route | PEV |
| Aircraft | PC12/L-SDFGRWY/S |
Departure
| Time | 2026-04-28 08:55 |
|---|---|
| Airport | Chief Dawid Stuurman International Airport (FAPE) |
Arrival
| Time | 2026-04-28 09:10 |
|---|---|
| Airport | Paradise Beach Airport (FAPX) |
| Time | Latitude | Longitude | Altitude | Speed | Heading |
|---|---|---|---|---|---|
| 2026-04-28 08:52 | -33.98362 | 25.61362 | 231 ft | 0 kts | 329° |
| 2026-04-28 08:53 | -33.98371 | 25.61346 | 231 ft | 7 kts | 171° |
| 2026-04-28 08:53 | -33.98416 | 25.61420 | 231 ft | 17 kts | 87° |
| 2026-04-28 08:53 | -33.98350 | 25.61587 | 230 ft | 27 kts | 58° |
| 2026-04-28 08:53 | -33.98255 | 25.61766 | 231 ft | 23 kts | 59° |
| 2026-04-28 08:54 | -33.98278 | 25.61919 | 232 ft | 7 kts | 151° |
| 2026-04-28 08:54 | -33.98279 | 25.61920 | 232 ft | 0 kts | 151° |
| 2026-04-28 08:54 | -33.98284 | 25.61923 | 232 ft | 5 kts | 150° |
| 2026-04-28 08:54 | -33.98355 | 25.61954 | 232 ft | 17 kts | 197° |
| 2026-04-28 08:55 | -33.98450 | 25.61800 | 232 ft | 42 kts | 237° |
| 2026-04-28 08:55 | -33.98693 | 25.61337 | 270 ft | 80 kts | 239° |
| 2026-04-28 08:55 | -33.99004 | 25.60774 | 677 ft | 85 kts | 240° |
| 2026-04-28 08:55 | -33.99398 | 25.60197 | 1263 ft | 91 kts | 236° |
| 2026-04-28 08:56 | -33.99855 | 25.59606 | 1677 ft | 112 kts | 237° |
| 2026-04-28 08:56 | -34.00079 | 25.58682 | 2240 ft | 115 kts | 269° |
| 2026-04-28 08:56 | -33.99990 | 25.57759 | 3035 ft | 107 kts | 268° |
| 2026-04-28 08:56 | -33.99976 | 25.56895 | 3770 ft | 100 kts | 261° |
| 2026-04-28 08:57 | -34.00029 | 25.56062 | 4433 ft | 99 kts | 257° |
| 2026-04-28 08:57 | -34.00115 | 25.55241 | 5094 ft | 99 kts | 256° |
| 2026-04-28 08:57 | -34.00216 | 25.54430 | 5709 ft | 99 kts | 255° |
| 2026-04-28 08:57 | -34.00330 | 25.53602 | 6336 ft | 101 kts | 254° |
| 2026-04-28 08:58 | -34.00456 | 25.52762 | 6951 ft | 102 kts | 254° |
| 2026-04-28 08:58 | -34.00588 | 25.51917 | 7552 ft | 103 kts | 253° |
| 2026-04-28 08:58 | -34.00734 | 25.51031 | 7969 ft | 122 kts | 253° |
| 2026-04-28 08:58 | -34.00935 | 25.49862 | 8037 ft | 160 kts | 255° |
| 2026-04-28 08:59 | -34.01172 | 25.48422 | 8076 ft | 188 kts | 256° |
| 2026-04-28 08:59 | -34.01425 | 25.46807 | 8083 ft | 207 kts | 256° |
| 2026-04-28 08:59 | -34.01689 | 25.45047 | 8067 ft | 219 kts | 257° |
| 2026-04-28 08:59 | -34.01963 | 25.43207 | 8051 ft | 226 kts | 257° |
| 2026-04-28 09:00 | -34.02244 | 25.41319 | 8031 ft | 230 kts | 257° |
| 2026-04-28 09:00 | -34.02531 | 25.39409 | 8023 ft | 233 kts | 257° |
| 2026-04-28 09:00 | -34.02825 | 25.37482 | 8015 ft | 234 kts | 257° |
| 2026-04-28 09:00 | -34.03116 | 25.35568 | 8005 ft | 229 kts | 257° |
| 2026-04-28 09:01 | -34.03398 | 25.33704 | 8002 ft | 223 kts | 257° |
| 2026-04-28 09:01 | -34.03680 | 25.31852 | 7793 ft | 227 kts | 256° |
| 2026-04-28 09:01 | -34.03972 | 25.29952 | 7533 ft | 233 kts | 256° |
| 2026-04-28 09:01 | -34.04267 | 25.28044 | 7281 ft | 227 kts | 256° |
| 2026-04-28 09:02 | -34.04551 | 25.26192 | 7037 ft | 224 kts | 257° |
| 2026-04-28 09:02 | -34.04835 | 25.24341 | 6781 ft | 225 kts | 257° |
| 2026-04-28 09:02 | -34.05118 | 25.22487 | 6523 ft | 225 kts | 257° |
| 2026-04-28 09:02 | -34.05401 | 25.20636 | 6264 ft | 223 kts | 257° |
| 2026-04-28 09:03 | -34.05678 | 25.18808 | 6023 ft | 220 kts | 257° |
| 2026-04-28 09:03 | -34.05947 | 25.17020 | 5862 ft | 219 kts | 257° |
| 2026-04-28 09:03 | -34.06221 | 25.15213 | 5736 ft | 218 kts | 257° |
| 2026-04-28 09:03 | -34.06459 | 25.13405 | 5376 ft | 219 kts | 263° |
| 2026-04-28 09:04 | -34.06214 | 25.11648 | 4814 ft | 211 kts | 280° |
| 2026-04-28 09:04 | -34.05804 | 25.10020 | 4375 ft | 190 kts | 281° |
| 2026-04-28 09:04 | -34.05453 | 25.08574 | 4042 ft | 168 kts | 281° |
| 2026-04-28 09:04 | -34.05149 | 25.07269 | 3661 ft | 158 kts | 279° |
| 2026-04-28 09:05 | -34.04856 | 25.05959 | 3159 ft | 167 kts | 279° |
| 2026-04-28 09:05 | -34.04559 | 25.04592 | 2809 ft | 165 kts | 279° |
| 2026-04-28 09:05 | -34.04272 | 25.03295 | 2643 ft | 156 kts | 279° |
| 2026-04-28 09:05 | -34.04112 | 25.02130 | 2492 ft | 148 kts | 268° |
| 2026-04-28 09:06 | -34.04251 | 25.00993 | 2306 ft | 124 kts | 252° |
| 2026-04-28 09:06 | -34.04559 | 25.00024 | 2134 ft | 125 kts | 246° |
| 2026-04-28 09:06 | -34.04952 | 24.99077 | 1965 ft | 128 kts | 242° |
| 2026-04-28 09:06 | -34.05407 | 24.98139 | 1780 ft | 130 kts | 240° |
| 2026-04-28 09:07 | -34.05889 | 24.97196 | 1600 ft | 127 kts | 240° |
| 2026-04-28 09:07 | -34.06277 | 24.96411 | 1452 ft | 90 kts | 240° |
| 2026-04-28 09:07 | -34.06581 | 24.95767 | 1363 ft | 90 kts | 241° |
| 2026-04-28 09:07 | -34.06897 | 24.95119 | 1240 ft | 90 kts | 243° |
| 2026-04-28 09:08 | -34.07215 | 24.94460 | 1114 ft | 92 kts | 243° |
| 2026-04-28 09:08 | -34.07534 | 24.93797 | 965 ft | 93 kts | 243° |
| 2026-04-28 09:08 | -34.07856 | 24.93116 | 840 ft | 92 kts | 241° |
| 2026-04-28 09:08 | -34.08172 | 24.92468 | 712 ft | 87 kts | 242° |
| 2026-04-28 09:09 | -34.08490 | 24.91843 | 590 ft | 88 kts | 241° |
| 2026-04-28 09:09 | -34.08802 | 24.91195 | 476 ft | 90 kts | 241° |
| 2026-04-28 09:09 | -34.09120 | 24.90527 | 392 ft | 94 kts | 240° |
| 2026-04-28 09:09 | -34.09461 | 24.89824 | 265 ft | 99 kts | 239° |
| 2026-04-28 09:10 | -34.09763 | 24.89154 | 130 ft | 85 kts | 239° |
| 2026-04-28 09:10 | -34.10039 | 24.88622 | 35 ft | 57 kts | 238° |
| 2026-04-28 09:10 | -34.10188 | 24.88329 | 45 ft | 38 kts | 239° |
| 2026-04-28 09:10 | -34.10282 | 24.88170 | 50 ft | 0 kts | 204° |